Time;durP1;ratioP1;P1;durP2;ratioP2;P2;SDS_P1;SDS_P2;PMS_P1;PMS_P2;Temp;Humidity;BMP_temperature;BMP_pressure;BME280_temperature;BME280_humidity;BME280_pressure;Samples;Min_cycle;Max_cycle;Signal;HPM_P1;HPM_P2
2023/05/09 00:00:53;;;;;;;;;;;;;;;12.88;46.11;101991.03;4114258;28;20034;-65
2023/05/09 00:02:55;;;;;;;;;;;;;;;12.82;46.34;101996.25;4114706;28;19926;-66
2023/05/09 00:04:57;;;;;;;;;;;;;;;12.81;46.00;101992.72;4115747;28;20024;-65
2023/05/09 00:06:59;;;;;;;;;;;;;;;12.85;45.76;101991.34;4113783;28;20037;-66
2023/05/09 00:09:03;;;;;;;;;;;;;;;12.86;45.80;101990.34;4114858;28;20021;-65
2023/05/09 00:11:05;;;;;;;;;;;;;;;12.78;46.26;101996.59;4114131;28;20013;-66
2023/05/09 00:13:08;;;;;;;;;;;;;;;12.76;46.14;101998.63;4113851;28;20552;-65
2023/05/09 00:15:11;;;;;;;;;;;;;;;12.77;46.14;101986.78;4115841;28;20017;-66
2023/05/09 00:17:14;;;;;;;;;;;;;;;12.77;46.13;101985.91;4114960;28;20013;-65
2023/05/09 00:19:16;;;;;;;;;;;;;;;12.69;46.36;101985.84;4115253;28;20054;-65
2023/05/09 00:21:18;;;;;;;;;;;;;;;12.66;46.57;101989.72;4115102;28;20025;-65
2023/05/09 00:23:20;;;;;;;;;;;;;;;12.60;46.47;101985.81;4114967;28;20333;-66
2023/05/09 00:25:22;;;;;;;;;;;;;;;12.62;46.35;101982.94;4115136;28;20379;-65
2023/05/09 00:27:24;;;;;;;;;;;;;;;12.59;46.71;101978.69;4114354;28;20433;-65
2023/05/09 00:29:26;;;;;;;;;;;;;;;12.54;47.01;101993.72;4113880;28;19926;-66
2023/05/09 00:31:30;;;;;;;;;;;;;;;12.49;46.70;101987.94;4114308;28;20348;-65
2023/05/09 00:33:32;;;;;;;;;;;;;;;12.51;47.07;101991.34;4113939;28;20444;-66
2023/05/09 00:35:34;;;;;;;;;;;;;;;12.48;47.00;101989.81;4114130;28;20025;-65
2023/05/09 00:37:36;;;;;;;;;;;;;;;12.42;47.34;101995.84;4115308;28;20012;-65
2023/05/09 00:39:39;;;;;;;;;;;;;;;12.36;47.09;101991.91;4114783;28;20021;-65
2023/05/09 00:41:41;;;;;;;;;;;;;;;12.28;47.52;101994.56;4114098;28;20452;-65
2023/05/09 00:43:43;;;;;;;;;;;;;;;12.29;47.36;101989.97;4115135;28;19930;-65
2023/05/09 00:45:45;;;;;;;;;;;;;;;12.27;47.60;101990.13;4115292;28;20009;-66
2023/05/09 00:47:48;;;;;;;;;;;;;;;12.22;47.74;101993.31;4112991;28;20022;-66
2023/05/09 00:49:50;;;;;;;;;;;;;;;12.19;47.77;101990.91;4120724;28;20029;-66
2023/05/09 00:51:52;;;;;;;;;;;;;;;12.17;47.60;101990.25;4114930;28;20471;-66
2023/05/09 00:53:55;;;;;;;;;;;;;;;12.19;47.69;101984.66;4121274;28;20028;-66
2023/05/09 00:55:57;;;;;;;;;;;;;;;12.18;47.64;101986.53;4121765;28;20013;-65
2023/05/09 00:57:59;;;;;;;;;;;;;;;12.15;47.75;101975.19;4113200;28;20025;-66
2023/05/09 01:00:01;;;;;;;;;;;;;;;12.12;47.58;101976.31;4115375;28;20054;-65
2023/05/09 01:02:03;;;;;;;;;;;;;;;12.12;47.94;101972.78;4114505;28;20024;-66
2023/05/09 01:04:07;;;;;;;;;;;;;;;12.12;47.82;101973.63;4114662;28;20370;-66
2023/05/09 01:06:10;;;;;;;;;;;;;;;12.12;47.70;101965.50;4114658;28;20119;-66
2023/05/09 01:08:13;;;;;;;;;;;;;;;12.10;47.56;101963.94;4120938;28;20471;-66
2023/05/09 01:10:16;;;;;;;;;;;;;;;12.07;47.89;101957.00;4114230;28;20017;-66
2023/05/09 01:12:21;;;;;;;;;;;;;;;12.05;47.48;101957.16;4114102;28;20358;-65
2023/05/09 01:14:24;;;;;;;;;;;;;;;12.09;47.14;101963.09;4113603;28;20037;-65
2023/05/09 01:16:29;;;;;;;;;;;;;;;12.11;47.38;101958.38;4114049;28;20013;-66
2023/05/09 01:18:33;;;;;;;;;;;;;;;12.10;47.07;101962.09;4114622;28;20443;-66
2023/05/09 01:20:38;;;;;;;;;;;;;;;12.04;47.28;101952.75;4113087;28;20347;-66
2023/05/09 01:22:44;;;;;;;;;;;;;;;12.04;47.14;101952.75;4113971;28;20029;-64
2023/05/09 01:24:58;;;;;;;;;;;;;;;12.02;47.30;101953.91;4114826;28;19977;-65
2023/05/09 01:27:06;;;;;;;;;;;;;;;11.97;47.41;101956.22;4114471;28;20583;-65
2023/05/09 01:29:14;;;;;;;;;;;;;;;11.93;47.11;101954.81;4121183;28;20021;-65
2023/05/09 01:31:17;;;;;;;;;;;;;;;11.93;47.20;101952.13;4120316;28;20012;-65
2023/05/09 01:33:19;;;;;;;;;;;;;;;11.90;46.93;101954.09;4114031;28;20017;-65
2023/05/09 01:35:21;;;;;;;;;;;;;;;11.87;47.44;101959.00;4111598;28;20066;-66
2023/05/09 01:37:24;;;;;;;;;;;;;;;11.84;47.22;101952.03;4114086;28;20664;-65
2023/05/09 01:39:26;;;;;;;;;;;;;;;11.84;47.03;101948.47;4113661;28;20025;-65
2023/05/09 01:41:28;;;;;;;;;;;;;;;11.83;47.18;101944.94;4114046;28;20029;-66
2023/05/09 01:43:30;;;;;;;;;;;;;;;11.87;46.80;101945.47;4119747;28;20024;-65
2023/05/09 01:45:33;;;;;;;;;;;;;;;11.92;46.89;101945.00;4114424;28;20407;-65
2023/05/09 01:47:35;;;;;;;;;;;;;;;11.91;46.60;101944.13;4104473;28;20038;-66
2023/05/09 01:49:37;;;;;;;;;;;;;;;11.85;46.42;101937.50;4113648;28;20048;-65
2023/05/09 01:51:39;;;;;;;;;;;;;;;11.84;46.38;101934.94;4111185;28;20508;-66
2023/05/09 01:53:42;;;;;;;;;;;;;;;11.90;46.18;101939.72;4114163;28;20029;-66
2023/05/09 01:55:44;;;;;;;;;;;;;;;11.87;46.15;101935.47;4113592;28;20016;-65
2023/05/09 01:57:47;;;;;;;;;;;;;;;11.76;45.95;101927.59;4095722;28;20517;-66
2023/05/09 01:59:49;;;;;;;;;;;;;;;11.82;45.99;101939.66;4111230;28;20571;-65
2023/05/09 02:01:54;;;;;;;;;;;;;;;11.80;45.91;101934.41;4112912;28;20028;-66
2023/05/09 02:03:56;;;;;;;;;;;;;;;11.84;45.61;101933.06;4114144;28;20024;-66
2023/05/09 02:05:58;;;;;;;;;;;;;;;11.85;45.75;101947.47;4118566;28;20392;-66
2023/05/09 02:08:00;;;;;;;;;;;;;;;11.81;45.46;101936.09;4113472;28;20017;-67
2023/05/09 02:10:03;;;;;;;;;;;;;;;11.73;45.41;101938.75;4111835;28;20005;-65
2023/05/09 02:12:05;;;;;;;;;;;;;;;11.75;45.39;101944.00;4112439;28;20013;-67
2023/05/09 02:14:07;;;;;;;;;;;;;;;11.68;45.31;101936.50;4119517;28;20618;-67
2023/05/09 02:16:11;;;;;;;;;;;;;;;11.63;45.72;101940.66;4112559;28;20017;-66
2023/05/09 02:18:15;;;;;;;;;;;;;;;11.61;45.44;101945.38;4110346;28;20021;-66
2023/05/09 02:20:17;;;;;;;;;;;;;;;11.53;45.73;101933.47;4113415;28;20020;-66
2023/05/09 02:22:19;;;;;;;;;;;;;;;11.47;45.66;101930.53;4113299;28;20016;-67
2023/05/09 02:24:21;;;;;;;;;;;;;;;11.43;46.03;101935.41;4111151;28;20020;-66
2023/05/09 02:26:25;;;;;;;;;;;;;;;11.44;45.77;101939.81;4109530;28;19981;-66
2023/05/09 02:28:27;;;;;;;;;;;;;;;11.38;46.17;101942.28;4120104;28;20017;-66
2023/05/09 02:30:31;;;;;;;;;;;;;;;11.42;45.99;101940.97;4111348;28;20020;-66
2023/05/09 02:32:33;;;;;;;;;;;;;;;11.41;45.73;101948.25;4112188;28;20025;-66
2023/05/09 02:34:37;;;;;;;;;;;;;;;11.41;45.85;101948.25;4112896;28;20014;-66
2023/05/09 02:36:39;;;;;;;;;;;;;;;11.44;45.66;101937.13;4113705;28;20025;-66
2023/05/09 02:38:41;;;;;;;;;;;;;;;11.49;45.37;101937.50;4112584;28;20017;-66
2023/05/09 02:40:44;;;;;;;;;;;;;;;11.51;45.53;101937.34;4113586;28;20021;-66
2023/05/09 02:42:46;;;;;;;;;;;;;;;11.55;45.41;101938.72;4113000;28;20014;-67
2023/05/09 02:44:48;;;;;;;;;;;;;;;11.55;45.32;101944.13;4111108;28;20009;-66
2023/05/09 02:46:51;;;;;;;;;;;;;;;11.50;45.31;101941.03;4119783;28;19934;-66
2023/05/09 02:48:53;;;;;;;;;;;;;;;11.48;45.49;101938.50;4119193;28;20028;-66
2023/05/09 02:50:57;;;;;;;;;;;;;;;11.47;45.26;101936.81;4103931;28;20012;-66
2023/05/09 02:52:59;;;;;;;;;;;;;;;11.47;45.17;101935.94;4102827;28;20296;-66
2023/05/09 02:55:03;;;;;;;;;;;;;;;11.43;45.52;101938.13;4112949;28;20456;-65
2023/05/09 02:57:07;;;;;;;;;;;;;;;11.41;45.44;101937.44;4119680;28;20028;-66
2023/05/09 02:59:09;;;;;;;;;;;;;;;11.41;45.46;101937.44;4112148;28;20021;-65
2023/05/09 03:01:11;;;;;;;;;;;;;;;11.33;45.73;101943.59;4111320;28;20013;-65
2023/05/09 03:03:16;;;;;;;;;;;;;;;11.27;45.64;101922.56;4111726;28;20021;-65
2023/05/09 03:05:18;;;;;;;;;;;;;;;11.39;45.39;101931.28;4112020;28;20017;-65
2023/05/09 03:07:21;;;;;;;;;;;;;;;11.39;45.42;101933.16;4111270;28;20021;-65
2023/05/09 03:09:24;;;;;;;;;;;;;;;11.32;45.65;101936.47;4119660;28;20061;-65
2023/05/09 03:11:26;;;;;;;;;;;;;;;11.24;45.77;101927.41;4113486;28;20030;-66
2023/05/09 03:13:29;;;;;;;;;;;;;;;11.19;45.99;101936.00;4122378;28;20037;-66
2023/05/09 03:15:33;;;;;;;;;;;;;;;11.16;46.38;101933.59;4122962;28;20017;-66
2023/05/09 03:17:35;;;;;;;;;;;;;;;11.17;46.15;101925.34;4115281;28;20017;-65
2023/05/09 03:19:37;;;;;;;;;;;;;;;11.18;46.18;101935.13;4114515;28;20021;-65
2023/05/09 03:21:40;;;;;;;;;;;;;;;11.20;46.22;101923.31;4113129;28;20028;-65
2023/05/09 03:23:44;;;;;;;;;;;;;;;11.26;46.04;101930.84;4113480;28;20021;-65
2023/05/09 03:25:46;;;;;;;;;;;;;;;11.28;45.83;101918.00;4120888;28;20017;-66
2023/05/09 03:27:47;;;;;;;;;;;;;;;11.33;45.92;101923.78;4115319;28;19998;-65
2023/05/09 03:29:51;;;;;;;;;;;;;;;11.33;46.04;101923.78;4114689;28;20399;-65
2023/05/09 03:31:54;;;;;;;;;;;;;;;11.35;46.18;101919.09;4113690;28;20020;-65
2023/05/09 03:33:56;;;;;;;;;;;;;;;11.31;46.30;101918.53;4115514;28;20019;-65
2023/05/09 03:35:58;;;;;;;;;;;;;;;11.37;45.81;101919.78;4114212;28;20016;-65
2023/05/09 03:38:00;;;;;;;;;;;;;;;11.28;46.10;101920.72;4113483;28;20025;-66
2023/05/09 03:40:05;;;;;;;;;;;;;;;11.26;46.49;101926.28;4115261;28;20044;-66
2023/05/09 03:42:12;;;;;;;;;;;;;;;11.29;45.97;101927.81;4114129;28;20074;-65
2023/05/09 03:44:16;;;;;;;;;;;;;;;11.30;46.31;101927.69;4112882;28;20017;-65
2023/05/09 03:46:18;;;;;;;;;;;;;;;11.34;46.16;101929.06;4116448;28;20496;-65
2023/05/09 03:48:23;;;;;;;;;;;;;;;11.32;46.13;101922.13;4113839;28;19932;-65
2023/05/09 03:50:26;;;;;;;;;;;;;;;11.27;46.73;101930.69;4106721;28;20025;-65
2023/05/09 03:52:32;;;;;;;;;;;;;;;11.21;46.64;101927.72;4121853;28;20483;-65
2023/05/09 03:54:34;;;;;;;;;;;;;;;11.12;46.76;101927.63;4114121;28;20090;-65
2023/05/09 03:56:39;;;;;;;;;;;;;;;11.16;46.67;101930.91;4121949;28;20033;-65
2023/05/09 03:58:40;;;;;;;;;;;;;;;11.15;47.01;101931.91;4122742;28;20032;-65
2023/05/09 04:00:42;;;;;;;;;;;;;;;11.18;46.70;101929.72;4122539;28;20025;-65
2023/05/09 04:02:51;;;;;;;;;;;;;;;11.24;46.79;101927.41;4129814;28;20033;-65
2023/05/09 04:05:03;;;;;;;;;;;;;;;11.29;46.31;101922.41;4129786;28;20036;-66
2023/05/09 04:07:05;;;;;;;;;;;;;;;11.22;46.90;101924.84;4124877;28;20028;-66
2023/05/09 04:09:09;;;;;;;;;;;;;;;11.28;46.77;101926.94;4110835;28;20371;-65
2023/05/09 04:11:11;;;;;;;;;;;;;;;11.27;46.97;101930.69;4110410;28;20017;-66
2023/05/09 04:13:18;;;;;;;;;;;;;;;11.18;47.02;101929.72;4112982;28;20024;-66
2023/05/09 04:15:21;;;;;;;;;;;;;;;11.19;46.93;101925.19;4111734;28;20061;-66
2023/05/09 04:17:24;;;;;;;;;;;;;;;11.22;46.80;101932.13;4092370;28;20025;-65
2023/05/09 04:19:25;;;;;;;;;;;;;;;11.20;47.30;101926.03;4112532;28;20030;-65
2023/05/09 04:21:27;;;;;;;;;;;;;;;11.16;47.41;101925.50;4115280;28;20028;-66
2023/05/09 04:23:33;;;;;;;;;;;;;;;11.18;47.23;101926.19;4104731;28;20025;-65
2023/05/09 04:25:36;;;;;;;;;;;;;;;11.21;47.33;101922.31;4120716;28;20021;-66
2023/05/09 04:27:38;;;;;;;;;;;;;;;11.25;47.04;101927.25;4121151;28;20476;-66
2023/05/09 04:29:42;;;;;;;;;;;;;;;11.24;47.49;101928.28;4122428;28;20443;-65
2023/05/09 04:31:44;;;;;;;;;;;;;;;11.18;47.38;101921.63;4120870;28;20021;-66
2023/05/09 04:33:49;;;;;;;;;;;;;;;11.15;47.42;101921.91;4112853;28;20029;-66
2023/05/09 04:35:51;;;;;;;;;;;;;;;11.24;47.09;101920.16;4114963;28;20020;-65
2023/05/09 04:37:53;;;;;;;;;;;;;;;11.20;47.57;101923.31;4113811;28;20384;-65
2023/05/09 04:39:55;;;;;;;;;;;;;;;11.09;47.65;101917.13;4120990;28;20496;-65
2023/05/09 04:42:05;;;;;;;;;;;;;;;11.06;48.06;101916.59;4106009;28;20021;-66
2023/05/09 04:44:07;;;;;;;;;;;;;;;11.05;47.96;101920.28;4114922;28;20024;-65
2023/05/09 04:46:11;;;;;;;;;;;;;;;11.15;47.35;101921.91;4120466;28;20511;-65
2023/05/09 04:48:13;;;;;;;;;;;;;;;11.16;47.45;101917.38;4112547;28;20025;-65
2023/05/09 04:50:15;;;;;;;;;;;;;;;11.12;47.45;101914.13;4120909;28;20444;-65
2023/05/09 04:52:17;;;;;;;;;;;;;;;11.07;47.60;101913.72;4113477;28;20018;-66
2023/05/09 04:54:20;;;;;;;;;;;;;;;11.03;48.18;101914.19;4096589;29;20364;-66
2023/05/09 04:56:26;;;;;;;;;;;;;;;11.00;47.97;101916.19;4111977;28;20134;-66
2023/05/09 04:58:28;;;;;;;;;;;;;;;11.05;48.08;101918.44;4113616;28;20037;-65
2023/05/09 05:00:32;;;;;;;;;;;;;;;11.04;47.95;101910.47;4111424;28;20042;-66
2023/05/09 05:02:35;;;;;;;;;;;;;;;11.05;47.80;101907.63;4113721;28;20021;-66
2023/05/09 05:04:37;;;;;;;;;;;;;;;11.15;47.84;101904.84;4103902;28;20033;-65
2023/05/09 05:06:39;;;;;;;;;;;;;;;11.14;47.83;101895.03;4119042;28;20032;-65
2023/05/09 05:08:42;;;;;;;;;;;;;;;11.15;47.55;101905.69;4111501;28;20016;-65
2023/05/09 05:10:45;;;;;;;;;;;;;;;11.10;48.33;101902.59;4111535;28;19930;-66
2023/05/09 05:12:49;;;;;;;;;;;;;;;11.08;48.18;101901.03;4111284;28;20049;-66
2023/05/09 05:14:54;;;;;;;;;;;;;;;11.05;48.09;101896.81;4088520;28;20445;-66
2023/05/09 05:16:57;;;;;;;;;;;;;;;11.12;47.83;101902.47;4119752;28;20353;-65
2023/05/09 05:19:01;;;;;;;;;;;;;;;11.16;47.38;101907.41;4113788;28;20009;-66
2023/05/09 05:21:04;;;;;;;;;;;;;;;11.28;47.26;101905.31;4120019;28;20029;-66
2023/05/09 05:23:06;;;;;;;;;;;;;;;11.30;47.27;101902.47;4111461;28;20017;-66
2023/05/09 05:25:09;;;;;;;;;;;;;;;11.29;47.32;101906.19;4112691;28;20034;-65
2023/05/09 05:27:13;;;;;;;;;;;;;;;11.28;47.36;101908.03;4109981;28;20013;-64
2023/05/09 05:29:16;;;;;;;;;;;;;;;11.29;47.27;101895.38;4119628;28;20030;-65
2023/05/09 05:31:20;;;;;;;;;;;;;;;11.30;47.18;101902.47;4120024;28;20033;-65
2023/05/09 05:33:22;;;;;;;;;;;;;;;11.29;47.17;101896.22;4119532;28;20036;-66
2023/05/09 05:35:27;;;;;;;;;;;;;;;11.29;47.31;101892.66;4110153;28;20013;-66
2023/05/09 05:37:31;;;;;;;;;;;;;;;11.31;47.31;101894.19;4118425;28;20013;-65
2023/05/09 05:39:33;;;;;;;;;;;;;;;11.27;47.75;101889.25;4111031;28;20042;-66
2023/05/09 05:41:36;;;;;;;;;;;;;;;11.26;47.63;101884.88;4109635;28;20357;-65
2023/05/09 05:43:40;;;;;;;;;;;;;;;11.29;47.48;101885.41;4110534;28;20456;-66
2023/05/09 05:45:43;;;;;;;;;;;;;;;11.39;47.41;101889.88;4112509;28;20025;-67
2023/05/09 05:47:51;;;;;;;;;;;;;;;11.40;47.33;101891.59;4113968;28;20024;-66
2023/05/09 05:49:53;;;;;;;;;;;;;;;11.41;47.31;101883.31;4114045;28;20041;-66
2023/05/09 05:51:56;;;;;;;;;;;;;;;11.45;47.17;101883.84;4111349;28;20016;-66
2023/05/09 05:54:00;;;;;;;;;;;;;;;11.51;46.92;101875.97;4103693;28;20016;-66
2023/05/09 05:56:02;;;;;;;;;;;;;;;11.60;46.86;101879.59;4103453;28;20025;-67
2023/05/09 05:58:05;;;;;;;;;;;;;;;11.66;46.69;101880.81;4104146;28;20017;-66
2023/05/09 06:00:09;;;;;;;;;;;;;;;11.66;46.81;101878.97;4114254;28;20402;-66
2023/05/09 06:02:15;;;;;;;;;;;;;;;11.63;46.73;101868.47;4111285;28;20021;-65
2023/05/09 06:04:18;;;;;;;;;;;;;;;11.60;46.86;101867.91;4110624;28;20300;-66
2023/05/09 06:06:20;;;;;;;;;;;;;;;11.61;46.79;101862.34;4113625;28;20504;-66
2023/05/09 06:08:24;;;;;;;;;;;;;;;11.64;47.01;101858.47;4119998;28;20052;-67
2023/05/09 06:10:26;;;;;;;;;;;;;;;11.64;47.02;101863.91;4113442;28;20009;-66
2023/05/09 06:12:28;;;;;;;;;;;;;;;11.74;46.97;101853.84;4117724;28;20475;-67
2023/05/09 06:14:30;;;;;;;;;;;;;;;11.83;46.70;101854.72;4112298;28;20021;-67
2023/05/09 06:16:32;;;;;;;;;;;;;;;11.77;46.93;101856.25;4111064;28;20472;-67
2023/05/09 06:18:36;;;;;;;;;;;;;;;11.76;46.73;101854.53;4119315;28;20024;-67
2023/05/09 06:20:38;;;;;;;;;;;;;;;11.85;46.73;101868.97;4111923;28;20025;-66
2023/05/09 06:22:40;;;;;;;;;;;;;;;11.90;46.36;101848.53;4117337;28;20025;-66
2023/05/09 06:24:44;;;;;;;;;;;;;;;11.95;46.59;101844.53;4119772;28;20029;-65
2023/05/09 06:26:46;;;;;;;;;;;;;;;11.95;46.48;101848.09;4119523;28;20020;-66
2023/05/09 06:28:51;;;;;;;;;;;;;;;11.93;46.71;101847.41;4111185;28;20009;-64
2023/05/09 06:30:53;;;;;;;;;;;;;;;11.96;46.57;101833.56;4112733;28;20037;-64
2023/05/09 06:32:56;;;;;;;;;;;;;;;12.04;46.40;101843.59;4112947;28;19926;-65
2023/05/09 06:34:58;;;;;;;;;;;;;;;12.09;46.08;101835.81;4114131;28;20009;-65
2023/05/09 06:37:00;;;;;;;;;;;;;;;12.04;46.39;101844.44;4112989;28;20036;-65
2023/05/09 06:39:02;;;;;;;;;;;;;;;12.03;46.34;101836.47;4114198;28;20017;-66
2023/05/09 06:41:06;;;;;;;;;;;;;;;11.99;46.49;101827.81;4113969;28;20013;-67
2023/05/09 06:43:08;;;;;;;;;;;;;;;12.00;46.51;101825.94;4114041;28;20052;-67
2023/05/09 06:45:11;;;;;;;;;;;;;;;12.06;46.72;101825.31;4113753;28;20024;-67
2023/05/09 06:47:13;;;;;;;;;;;;;;;12.10;46.37;101815.00;4112900;28;20013;-67
2023/05/09 06:49:15;;;;;;;;;;;;;;;12.19;46.52;101816.75;4113758;28;20067;-67
2023/05/09 06:51:17;;;;;;;;;;;;;;;12.26;46.21;101821.34;4113392;28;20021;-67
2023/05/09 06:53:19;;;;;;;;;;;;;;;12.24;46.29;101811.69;4112249;28;19934;-66
2023/05/09 06:55:21;;;;;;;;;;;;;;;12.24;46.53;101817.97;4114098;28;20017;-68
2023/05/09 06:57:24;;;;;;;;;;;;;;;12.28;46.63;101813.06;4113544;28;20013;-67
2023/05/09 06:59:26;;;;;;;;;;;;;;;12.28;46.35;101813.06;4113397;28;19964;-67
2023/05/09 07:01:28;;;;;;;;;;;;;;;12.29;46.37;101812.06;4112150;28;20021;-67
2023/05/09 07:03:30;;;;;;;;;;;;;;;12.31;46.57;101807.34;4113520;28;20013;-68
2023/05/09 07:05:33;;;;;;;;;;;;;;;12.36;46.11;101796.84;4112953;28;20383;-67
2023/05/09 07:07:35;;;;;;;;;;;;;;;12.36;46.23;101801.44;4112809;28;20359;-67
2023/05/09 07:09:37;;;;;;;;;;;;;;;12.38;46.45;101802.97;4113158;28;20436;-67
2023/05/09 07:11:39;;;;;;;;;;;;;;;12.45;46.17;101797.75;4113034;28;20028;-67
2023/05/09 07:13:42;;;;;;;;;;;;;;;12.46;46.03;101777.78;4111297;28;20479;-66
2023/05/09 07:15:44;;;;;;;;;;;;;;;12.51;45.94;101782.69;4112055;28;20017;-67
2023/05/09 07:17:46;;;;;;;;;;;;;;;12.55;45.89;101782.19;4110766;28;20024;-67
2023/05/09 07:19:48;;;;;;;;;;;;;;;12.64;45.53;101766.81;4102046;28;20375;-67
2023/05/09 07:21:50;;;;;;;;;;;;;;;12.68;45.41;101770.03;4109516;28;20041;-67
2023/05/09 07:23:52;;;;;;;;;;;;;;;12.64;45.65;101763.25;4110254;28;20020;-67
2023/05/09 07:25:58;;;;;;;;;;;;;;;12.66;45.63;101761.22;4113224;28;20001;-66
2023/05/09 07:28:00;;;;;;;;;;;;;;;12.73;45.62;101757.69;4113167;28;20028;-67
2023/05/09 07:30:04;;;;;;;;;;;;;;;12.79;44.87;101767.03;4106757;28;20021;-67
2023/05/09 07:32:06;;;;;;;;;;;;;;;12.80;44.88;101756.00;4109134;28;20036;-68
2023/05/09 07:34:08;;;;;;;;;;;;;;;12.76;44.63;101760.06;4112321;28;19926;-67
2023/05/09 07:36:11;;;;;;;;;;;;;;;12.78;44.81;101752.59;4109894;28;20089;-67
2023/05/09 07:38:13;;;;;;;;;;;;;;;12.78;44.99;101758.03;4110944;28;20014;-67
2023/05/09 07:40:15;;;;;;;;;;;;;;;12.85;45.17;101749.22;4112527;28;20357;-67
2023/05/09 07:42:18;;;;;;;;;;;;;;;12.85;44.30;101747.34;4111756;28;20626;-67
2023/05/09 07:44:20;;;;;;;;;;;;;;;12.88;44.63;101741.59;4113458;28;20013;-67
2023/05/09 07:46:23;;;;;;;;;;;;;;;12.94;44.38;101740.09;4112751;28;20349;-68
2023/05/09 07:48:25;;;;;;;;;;;;;;;12.95;44.34;101730.94;4107878;28;20021;-67
2023/05/09 07:50:28;;;;;;;;;;;;;;;12.98;44.70;101717.88;4112270;28;20444;-66
2023/05/09 07:52:30;;;;;;;;;;;;;;;13.00;44.41;101725.84;4112219;28;20523;-66
2023/05/09 07:54:32;;;;;;;;;;;;;;;13.00;44.08;101727.72;4111986;28;19973;-67
2023/05/09 07:56:34;;;;;;;;;;;;;;;13.02;43.71;101715.66;4113379;28;19997;-68
2023/05/09 07:58:36;;;;;;;;;;;;;;;13.07;43.98;101726.00;4109894;28;20041;-67
2023/05/09 08:00:38;;;;;;;;;;;;;;;13.09;44.29;101710.44;4114625;28;20017;-67
2023/05/09 08:02:42;;;;;;;;;;;;;;;13.13;43.88;101717.19;4114066;28;20029;-67
2023/05/09 08:04:47;;;;;;;;;;;;;;;13.15;43.42;101698.91;4108673;28;20020;-66
2023/05/09 08:06:49;;;;;;;;;;;;;;;13.15;42.72;101710.59;4112599;28;20029;-68
2023/05/09 08:08:51;;;;;;;;;;;;;;;13.15;42.95;101710.59;4110291;28;20036;-66
2023/05/09 08:10:53;;;;;;;;;;;;;;;13.20;43.63;101706.50;4113794;28;20029;-68
2023/05/09 08:12:55;;;;;;;;;;;;;;;13.24;43.75;101714.13;4112704;28;20024;-67
2023/05/09 08:14:58;;;;;;;;;;;;;;;13.25;43.07;101699.56;4115695;28;19929;-66
2023/05/09 08:16:59;;;;;;;;;;;;;;;13.29;43.12;101700.06;4113141;28;20009;-66
2023/05/09 08:19:03;;;;;;;;;;;;;;;13.33;43.25;101705.00;4113725;28;20013;-66
2023/05/09 08:21:05;;;;;;;;;;;;;;;13.36;42.84;101692.13;4114901;28;20049;-66
2023/05/09 08:23:07;;;;;;;;;;;;;;;13.37;42.71;101697.38;4114820;28;20022;-68
2023/05/09 08:25:10;;;;;;;;;;;;;;;13.39;43.09;101689.06;4114059;28;20352;-67
2023/05/09 08:27:14;;;;;;;;;;;;;;;13.42;42.91;101686.84;4112724;28;20025;-67
2023/05/09 08:29:16;;;;;;;;;;;;;;;13.43;42.83;101680.41;4110365;28;19966;-67
2023/05/09 08:31:21;;;;;;;;;;;;;;;13.45;42.69;101691.94;4121499;28;20049;-66
2023/05/09 08:33:23;;;;;;;;;;;;;;;13.47;42.76;101678.19;4113037;28;20060;-66
2023/05/09 08:35:26;;;;;;;;;;;;;;;13.51;43.24;101674.97;4112109;28;20401;-67
2023/05/09 08:37:29;;;;;;;;;;;;;;;13.54;43.23;101676.47;4114072;28;19930;-67
2023/05/09 08:39:33;;;;;;;;;;;;;;;13.61;42.87;101685.63;4115281;28;20470;-67
2023/05/09 08:41:35;;;;;;;;;;;;;;;13.63;42.90;101678.13;4114005;28;20018;-67
2023/05/09 08:43:38;;;;;;;;;;;;;;;13.70;42.94;101675.59;4112435;28;20065;-66
2023/05/09 08:45:42;;;;;;;;;;;;;;;13.72;42.61;101673.53;4114429;28;19938;-66
2023/05/09 08:47:44;;;;;;;;;;;;;;;13.73;42.22;101680.69;4112823;28;20452;-66
2023/05/09 08:49:48;;;;;;;;;;;;;;;13.76;41.98;101671.31;4113045;28;20376;-66
2023/05/09 08:51:52;;;;;;;;;;;;;;;13.79;40.51;101679.09;4114079;28;20029;-66
2023/05/09 08:53:53;;;;;;;;;;;;;;;13.85;41.74;101679.25;4113592;28;20053;-67
2023/05/09 08:55:56;;;;;;;;;;;;;;;13.83;41.12;101672.31;4113710;28;19933;-66
2023/05/09 08:57:58;;;;;;;;;;;;;;;13.88;41.72;101678.06;4114151;28;20038;-65
2023/05/09 09:00:00;;;;;;;;;;;;;;;13.90;41.77;101653.44;4114307;28;20025;-67
2023/05/09 09:02:07;;;;;;;;;;;;;;;13.87;41.25;101665.50;4111327;28;20369;-65
2023/05/09 09:04:10;;;;;;;;;;;;;;;13.87;40.53;101658.22;4113459;28;20091;-67
2023/05/09 09:06:15;;;;;;;;;;;;;;;13.92;41.38;101657.69;4113800;28;20021;-66
2023/05/09 09:08:19;;;;;;;;;;;;;;;13.96;41.38;101655.47;4112778;28;20029;-66
2023/05/09 09:10:24;;;;;;;;;;;;;;;13.99;41.78;101664.09;4112957;28;20057;-67
2023/05/09 09:12:26;;;;;;;;;;;;;;;13.99;41.79;101661.38;4112885;28;20026;-65
2023/05/09 09:14:28;;;;;;;;;;;;;;;14.02;42.13;101654.75;4121535;28;20496;-67
2023/05/09 09:16:31;;;;;;;;;;;;;;;14.02;42.14;101652.88;4114617;28;20443;-66
2023/05/09 09:18:36;;;;;;;;;;;;;;;14.07;41.83;101633.31;4114521;28;20009;-66
2023/05/09 09:20:41;;;;;;;;;;;;;;;14.10;41.62;101641.13;4113173;28;20697;-67
2023/05/09 09:22:47;;;;;;;;;;;;;;;14.14;41.70;101655.22;4114514;28;20025;-67
2023/05/09 09:24:51;;;;;;;;;;;;;;;14.15;41.45;101646.00;4113863;28;20072;-66
2023/05/09 09:26:54;;;;;;;;;;;;;;;14.17;41.26;101652.09;4109268;28;20037;-66
2023/05/09 09:28:56;;;;;;;;;;;;;;;14.21;41.00;101657.00;4111821;28;20373;-66
2023/05/09 09:30:58;;;;;;;;;;;;;;;14.22;41.05;101647.84;4113729;28;20504;-65
2023/05/09 09:33:00;;;;;;;;;;;;;;;14.22;41.30;101639.69;4110042;28;20686;-66
2023/05/09 09:35:06;;;;;;;;;;;;;;;14.23;41.20;101643.25;4113723;28;20024;-66
2023/05/09 09:37:08;;;;;;;;;;;;;;;14.27;41.30;101638.31;4113618;28;19930;-65
2023/05/09 09:39:10;;;;;;;;;;;;;;;14.24;41.07;101629.47;4114655;28;20029;-66
2023/05/09 09:41:14;;;;;;;;;;;;;;;14.27;41.72;101633.72;4111754;28;20016;-65
2023/05/09 09:43:16;;;;;;;;;;;;;;;14.33;40.86;101632.16;4109420;28;20353;-66
2023/05/09 09:45:18;;;;;;;;;;;;;;;14.32;40.69;101631.31;4111293;28;20061;-66
2023/05/09 09:47:20;;;;;;;;;;;;;;;14.33;41.07;101611.25;4113022;28;19933;-66
2023/05/09 09:49:23;;;;;;;;;;;;;;;14.37;40.89;101606.31;4113867;28;20056;-66
2023/05/09 09:51:27;;;;;;;;;;;;;;;14.36;40.95;101610.91;4113370;28;20371;-66
2023/05/09 09:53:30;;;;;;;;;;;;;;;14.37;41.42;101609.88;4110475;28;20364;-66
2023/05/09 09:55:32;;;;;;;;;;;;;;;14.44;40.70;101606.44;4113156;28;20360;-67
2023/05/09 09:57:35;;;;;;;;;;;;;;;14.42;40.56;101606.63;4112496;28;19930;-66
2023/05/09 09:59:37;;;;;;;;;;;;;;;14.47;40.62;101611.53;4111583;28;20452;-66
2023/05/09 10:01:55;;;;;;;;;;;;;;;14.45;40.60;101600.84;4112869;28;20025;-66
2023/05/09 10:03:58;;;;;;;;;;;;;;;14.49;39.75;101604.03;4119774;28;20017;-67
2023/05/09 10:06:01;;;;;;;;;;;;;;;14.50;40.56;101601.13;4112591;28;20020;-67
2023/05/09 10:08:03;;;;;;;;;;;;;;;14.55;40.28;101597.84;4110575;28;20017;-67
2023/05/09 10:10:07;;;;;;;;;;;;;;;14.59;39.95;101604.59;4112659;28;20516;-66
2023/05/09 10:12:09;;;;;;;;;;;;;;;14.62;39.71;101593.38;4111105;28;20345;-66
2023/05/09 10:14:13;;;;;;;;;;;;;;;14.64;39.79;101585.06;4112565;28;20028;-66
2023/05/09 10:16:15;;;;;;;;;;;;;;;14.65;39.49;101581.31;4112659;28;20432;-67
2023/05/09 10:18:18;;;;;;;;;;;;;;;14.65;39.68;101586.75;4114334;28;19969;-67
2023/05/09 10:20:20;;;;;;;;;;;;;;;14.65;39.87;101574.00;4113351;28;20452;-67
2023/05/09 10:22:22;;;;;;;;;;;;;;;14.65;39.72;101581.31;4111377;28;20022;-67
2023/05/09 10:24:27;;;;;;;;;;;;;;;14.66;39.76;101580.31;4112256;28;20017;-67
2023/05/09 10:26:30;;;;;;;;;;;;;;;14.66;40.21;101580.31;4113642;28;20024;-67
2023/05/09 10:28:33;;;;;;;;;;;;;;;14.71;40.13;101575.97;4113672;28;20021;-67
2023/05/09 10:30:38;;;;;;;;;;;;;;;14.76;39.69;101570.00;4112208;28;20017;-67